METAR Data
IDs: Format: Raw Decoded Include TAF

Data at: 1317 UTC 10 Aug 2022

VILK 101300Z 09010KT 5000 HZ SCT020 SCT025 BKN100 31/28 Q0995 NOSIG
VILK 101230Z 09008KT 5000 HZ SCT020 SCT025 BKN100 31/28 Q0995 NOSIG
VILK 101200Z 10010KT 5000 HZ SCT020 SCT025 BKN100 32/28 Q0995 NOSIG
VILK 101130Z 10012KT 5000 HZ SCT020 SCT025 32/28 Q0995 NOSIG
VILK 101100Z 10010KT 5000 HZ SCT020 SCT025 33/28 Q0995 NOSIG
VILK 101030Z 09014KT 5000 HZ SCT020 SCT025 33/28 Q0995 NOSIG
VILK 101000Z 09014KT 5000 HZ SCT020 SCT025 33/29 Q0995 NOSIG
VILK 100930Z 10013KT 5000 HZ SCT020 SCT025 33/29 Q0995 NOSIG
VILK 100900Z 10013KT 5000 HZ SCT020 SCT025 33/29 Q0995 NOSIG
VILK 100830Z 10012KT 5000 HZ SCT020 SCT025 33/29 Q0995 NOSIG
VILK 100800Z 10011KT 5000 HZ SCT020 SCT025 33/29 Q0996 NOSIG
VILK 100730Z 11013KT 5000 HZ SCT020 BKN025 33/28 Q0996 NOSIG
VILK 100700Z 09013KT 5000 HZ SCT020 BKN025 33/29 Q0996 NOSIG
VILK 100630Z 11015KT 5000 HZ SCT020 SCT025 33/28 Q0996 NOSIG
VILK 100600Z 09015KT 5000 HZ SCT020 SCT025 33/28 Q0996 NOSIG
VILK 100530Z 11014KT 5000 HZ SCT020 SCT025 32/29 Q0996 NOSIG
VILK 100430Z 11013KT 5000 HZ FEW020 SCT025 32/28 Q0996 NOSIG
VILK 100330Z 11012KT 4500 HZ FEW020 31/28 Q0996 BECMG 5000 HZ
VILK 100100Z 09008KT 4000 BR FEW020 29/27 Q0996 NOSIG
VILK 100000Z 09008KT 4000 BR FEW020 28/27 Q0996 NOSIG
VILK 092300Z 08008KT 4000 BR FEW020 SCT100 29/27 Q0996 NOSIG
VILK 092230Z 07008KT 4000 BR FEW020 SCT100 29/27 Q0996 NOSIG
VILK 092200Z 07008KT 4000 BR FEW020 SCT100 29/27 Q0996 NOSIG
VILK 092100Z 07006KT 4000 BR FEW020 SCT100 29/27 Q0996 NOSIG
VILK 092030Z 07007KT 4000 BR FEW020 SCT100 29/27 Q0997 NOSIG
VILK 092000Z 07005KT 4000 BR FEW020 SCT100 30/28 Q0997 NOSIG
VILK 091930Z 07006KT 4000 BR SCT020 SCT100 30/28 Q0997 NOSIG
VILK 091830Z 09007KT 4000 BR SCT020 SCT100 30/28 Q0997 NOSIG
VILK 091800Z 09006KT 4000 BR SCT020 SCT100 30/28 Q0998 NOSIG
VILK 091730Z 08005KT 4000 BR SCT020 SCT100 30/28 Q0997 NOSIG
VILK 091700Z 08005KT 4000 BR SCT020 SCT100 31/28 Q0998 NOSIG
VILK 091630Z 08005KT 4000 BR SCT020 SCT100 31/28 Q0997 NOSIG
VILK 091600Z 08006KT 4000 HZ SCT020 SCT100 31/28 Q0997 NOSIG
VILK 091430Z 08005KT 5000 HZ FEW020 32/29 Q0996 NOSIG
VILK 091400Z 09006KT 5000 HZ FEW020 32/29 Q0996 NOSIG
VILK 091330Z 10009KT 5000 HZ FEW020 33/29 Q0996 NOSIG
VILK 091230Z 09008KT 5000 HZ FEW020 SCT025 33/29 Q0995 NOSIG
VILK 091200Z 09010KT 5000 HZ FEW020 SCT025 34/29 Q0995 NOSIG
VILK 091130Z 09010KT 5000 HZ FEW020 SCT025 FEW030CB 34/29 Q0995 NOSIG
VILK 091100Z 09010KT 5000 HZ SCT020 SCT025 FEW030CB 34/29 Q0995 NOSIG
VILK 091030Z 09012KT 5000 HZ SCT020 SCT025 FEW030CB 34/29 Q0995 NOSIG
VILK 091000Z 09009KT 5000 HZ SCT020 SCT025 FEW030CB 34/30 Q0996 NOSIG
VILK 090930Z 10012KT 5000 HZ SCT020 SCT025 FEW030CB 34/30 Q0996 NOSIG
VILK 090900Z 10012KT 5000 HZ SCT020 SCT025 FEW030CB 35/30 Q0996 NOSIG
VILK 090830Z 10010KT 5000 HZ SCT020 SCT025 FEW030CB 34/30 Q0997 NOSIG
VILK 090800Z 09008KT 5000 HZ SCT020 SCT025 34/29 Q0997 NOSIG
VILK 090730Z 09011KT 5000 HZ SCT020 SCT025 34/29 Q0998 NOSIG
VILK 090630Z 09010KT 5000 HZ SCT020 SCT025 34/29 Q0998 NOSIG
VILK 090530Z 11006KT 5000 HZ SCT020 SCT025 33/29 Q0999 NOSIG
VILK 090430Z 09009KT 5000 HZ SCT020 SCT100 33/29 Q0999 NOSIG
VILK 090400Z 08007KT 5000 HZ SCT020 SCT100 33/29 Q0999 NOSIG
VILK 090330Z 11008KT 4500 HZ SCT020 SCT100 32/29 Q0999 BECMG 5000 HZ
VILK 090230Z 10005KT 3500 BR FEW020 SCT200 31/28 Q0999 NOSIG
VILK 090200Z 09005KT 3000 BR SCT020 BKN100 29/27 Q0998 NOSIG
VILK 090130Z 09006KT 3000 BR SCT020 BKN100 29/27 Q0998 NOSIG
VILK 090030Z 09004KT 3000 BR SCT020 BKN100 28/26 Q0998 NOSIG
VILK 090000Z 09004KT 3000 BR SCT020 BKN100 28/27 Q0998 NOSIG
VILK 082330Z 09004KT 3000 BR SCT020 BKN100 28/27 Q0998 NOSIG
VILK 082300Z 07005KT 3000 BR SCT020 BKN100 28/27 Q0998 NOSIG
VILK 082230Z 07005KT 3000 BR SCT020 BKN100 28/27 Q0998 NOSIG
VILK 082200Z 07006KT 3000 BR SCT020 BKN100 29/27 Q0998 NOSIG
VILK 082100Z 09004KT 3000 BR SCT020 BKN100 29/27 Q0998 NOSIG
VILK 082030Z 07004KT 3000 BR SCT020 BKN100 29/27 Q0998 NOSIG
VILK 082000Z 07004KT 3000 BR SCT020 BKN100 29/27 Q0998 NOSIG
VILK 081930Z 09005KT 3000 BR SCT020 BKN100 29/27 Q0999 NOSIG
VILK 081900Z 09005KT 3000 BR SCT020 BKN100 39/27 Q0999 NOSIG
VILK 081830Z 09004KT 3000 BR SCT020 FEW030CB BKN100 30/28 Q0999 NOSIG
VILK 081800Z 09006KT 3000 BR SCT020 FEW030CB BKN100 31/29 Q0999 NOSIG
VILK 081730Z 07005KT 3000 BR SCT020 BKN100 31/29 Q0999 NOSIG
VILK 081700Z 09005KT 3000 BR SCT020 BKN100 31/29 Q0999 NOSIG
VILK 081630Z 00000KT 3000 BR SCT020 BKN100 31/29 Q0999 NOSIG
VILK 081530Z 00000KT 3000 BR SCT020 BKN100 31/30 Q0998 NOSIG
VILK 081430Z VRB02KT 3000 BR SCT018 SCT025 BKN100 31/29 Q0997 NOSIG
VILK 081400Z VRB02KT 3000 BR SCT018 SCT025 FEW030CB BKN100 32/30 Q0997 NOSIG
VILK 081330Z 08007KT 3500 -RA SCT018 SCT025 BKN100 32/30 Q0996 BECMG 3000 -RA
VILK 081230Z 09006KT 3500 HZ SCT018 SCT025 BKN100 33/30 Q0995 NOSIG
VILK 081200Z 08006KT 3500 HZ SCT018 SCT025 BKN100 34/30 Q0995 NOSIG
VILK 081130Z 12004KT 3500 HZ SCT018 SCT025 BKN100 34/30 Q0995 NOSIG
VILK 081100Z 11004KT 3500 HZ FEW018 SCT025 FEW030 BKN100 34/30 Q0996 NOSIG
VILK 081030Z 12003KT 3500 HZ SCT018 SCT025 FEW030CB BKN100 32/29 Q0996 NOSIG
VILK 081000Z 13009KT 3000 -RA SCT018 SCT025 FEW030CB OVC090 34/30 Q0996 NOSIG
VILK 080930Z 08006KT 4000 HZ SCT018 SCT025 FEW030CB BKN100 34/30 Q0996 TEMPO 1500 RA TSRA
VILK 080900Z 09005KT 4000 HZ SCT018 SCT025 FEW030CB BKN100 34/30 Q0997 NOSIG
VILK 080830Z 07006KT 3000 BR SCT018 SCT025 FEW030CB BKN100 34/31 Q0997 NOSIG
VILK 080800Z 05005KT 3500 BR SCT018 SCT025 FEW030CB BKN100 33/30 Q0998 NOSIG
VILK 080730Z 09003KT 3000 BR SCT018 SCT025 FEW030CB BKN100 32/30 Q0998 TEMPO 1500 TSRA
VILK 080700Z 09004KT 3000 BR SCT018 SCT025 BKN100 33/30 Q0998 TEMPO 1500 TSRA
VILK 080630Z 07003KT 4000 BR SCT018 SCT025 BKN100 33/30 Q0999 NOSIG
VILK 080600Z VRB02KT 4000 BR SCT018 SCT025 BKN100 33/30 Q0999 NOSIG
VILK 080530Z VRB02KT 4000 BR SCT018 SCT025 BKN100 33/30 Q0999 NOSIG
VILK 080330Z VRB02KT 4000 FEW020 SCT100 31/29 Q0999 BECMG 5000 HZ
VILK 080300Z VRB02KT 3500 BR FEW020 SCT100 29/27 Q0999 NOSIG
VILK 080230Z VRB02KT 3000 BR FEW020 SCT100 29/27 Q0999 NOSIG
VILK 080200Z VRB02KT 3000 BR FEW020 SCT100 28/27 Q0999 NOSIG
VILK 080130Z VRB02KT 3000 BR FEW020 SCT100 27/26 Q0999 NOSIG
VILK 080100Z VRB02KT 3000 BR FEW020 SCT100 27/26 Q0999 NOSIG
VILK 080030Z VRB02KT 3000 BR FEW020 SCT100 26/26 Q0998 NOSIG
VILK 080000Z VRB02KT 3000 BR FEW020 SCT100 26/26 Q0998 NOSIG
VILK 072330Z VRB02KT 3000 BR FEW020 SCT100 26/26 Q0998 NOSIG
VILK 072300Z VRB02KT 3000 BR FEW020 SCT100 26/26 Q0998 NOSIG
VILK 072230Z VRB02KT 3000 BR FEW010 SCT020 26/26 Q0998 NOSIG
VILK 072200Z VRB02KT 3000 BR FEW010 SCT020 26/26 Q0998 NOSIG
VILK 072130Z VRB02KT 3000 BR SCT020 SCT100 26/26 Q0999 NOSIG
VILK 072100Z VRB02KT 3000 BR SCT020 SCT100 26/26 Q0999 NOSIG
VILK 072030Z VRB02KT 3000 BR SCT020 SCT100 27/26 Q0999 NOSIG
VILK 072000Z VRB02KT 3000 BR SCT020 SCT100 27/26 Q0999 NOSIG
VILK 071930Z VRB02KT 3000 BR SCT020 SCT100 27/26 Q0999 NOSIG
VILK 071830Z VRB01KT 3000 BR SCT020 BKN100 27/26 Q0999 NOSIG
VILK 071800Z 00000KT 3000 BR SCT020 BKN100 27/26 Q0999 NOSIG
VILK 071730Z VRB02KT 3000 BR SCT020 BKN100 27/26 Q0999 NOSIG
VILK 071700Z VRB02KT 3000 BR SCT020 BKN100 27/26 Q0999 NOSIG
VILK 071630Z VRB02KT 3000 BR SCT018 BKN100 27/26 Q0999 NOSIG
VILK 071600Z VRB02KT 3000 BR SCT018 BKN100 26/26 Q0999 NOSIG
VILK 071530Z 09003KT 3000 BR SCT018 FEW030CB BKN100 26/25 Q0999 NOSIG
VILK 071500Z 09003KT 3000 BR SCT018 FEW030CB BKN100 26/26 Q0998 NOSIG
VILK 071430Z 09003KT 3000 BR SCT018 FEW030CB BKN100 26/25 Q0998 NOSIG
VILK 071330Z 03005KT 3000 BR FEW010 SCT018 FEW030CB BKN100 26/25 Q0998 NOSIG
VILK 071300Z 35007KT 3000 BR FEW010 SCT018 FEW030CB BKN100 26/25 Q0998 NOSIG
VILK 071230Z 34007KT 3000 -RA FEW010 SCT018 FEW030CB BKN100 26/25 Q0998 NOSIG
VILK 071200Z 32006KT 3000 -RA SCT010 SCT015 FEW030CB OVC090 26/26 Q0998 NOSIG
VILK 071130Z 31008KT 2500 -TSRA SCT010 SCT015 FEW030CB OVC090 26/26 Q0998 BECMG 3000 RA TSRA
VILK 071100Z 26009KT 2000 -TSRA SCT010 SCT015 FEW030CB OVC090 26/26 Q0998 BECMG 3000 TSRA
VILK 071030Z 23010KT 0800 TSRA SCT010 SCT015 FEW030CB OVC090 27/26 Q0998 NOSIG
VILK 071000Z 27010KT 3500 TS SCT015 SCT020 FEW030CB BKN100 30/28 Q0997 TEMPO 3000 TSRA
VILK 070930Z VRB02KT 4000 HZ SCT020 SCT025 FEW030CB BKN100 34/30 Q0997 TEMPO 3000 TSRA
VILK 070900Z VRB02KT 4000 HZ SCT020 SCT025 BKN100 34/30 Q0997 NOSIG
VILK 070830Z VRB02KT 3500 BR SCT020 SCT025 BKN100 33/30 Q0998 NOSIG
VILK 070730Z VRB02KT 3500 BR SCT020 SCT025 BKN100 32/29 Q1000 NOSIG
VILK 070700Z 13003KT 3500 BR SCT020 SCT025 BKN100 32/29 Q1000 NOSIG
VILK 070630Z 12004KT 3500 BR SCT020 SCT025 BKN100 32/29 Q1000 NOSIG
VILK 070600Z 07006KT 3500 BR SCT020 SCT025 BKN100 31/28 Q1000 NOSIG
VILK 070530Z 05004KT 3500 BR SCT020 FEW030CB BKN100 30/27 Q1000 NOSIG
VILK 070500Z 06006KT 3000 BR SCT018 FEW030CB BKN090 28/26 Q1001 NOSIG
VILK 070430Z 05007KT 2500 BR SCT018 FEW030CB OVC090 28/26 Q01001 BECMG 3000 BR HZ
VILK 070400Z 05005KT 2500 BR SCT018 FEW030CB OVC090 27/26 Q1001 NOSIG
VILK 070330Z 07004KT 2500 BR SCT018 FEW030CB OVC090 28/27 Q01001 NOSIG
VILK 070300Z 07004KT 2500 -RA SCT018 FEW030CB OVC090 28/27 Q01001 NOSIG
VILK 070230Z 07006KT 2500 BR SCT018 FEW030CB OVC090 29/27 Q01000 NOSIG
VILK 070200Z 09005KT 2500 BR SCT018 FEW030CB OVC090 29/28 Q1000 NOSIG
VILK 070130Z 08005KT 2500 BR SCT018 FEW030CB OVC090 29/28 Q1000 NOSIG
VILK 070100Z 06004KT 2500 BR SCT018 FEW030CB OVC090 28/28 Q1000 NOSIG
VILK 070030Z 07005KT 2500 BR BKN020 OVC090 28/28 Q0999 NOSIG
VILK 062330Z VRB02KT 2500 BR BKN020 OVC090 28/27 Q0999 NOSIG
VILK 062230Z VRB02KT 2500 BR BKN020 OVC090 28/26 Q0998 NOSIG
VILK 062200Z VRB02KT 2500 BR BKN020 OVC090 28/26 Q0998 NOSIG
VILK 062130Z VRB02KT 2500 BR BKN020 OVC090 28/26 Q0998 NOSIG
VILK 062100Z VRB02KT 2500 BR BKN020 OVC090 28/26 Q0998 NOSIG
VILK 062030Z VRB02KT 2500 BR SCT020 OVC090 28/26 Q0999 NOSIG
VILK 062000Z 00000KT 2500 BR SCT020 FEW030CB OVC090 27/26 Q0999 NOSIG
VILK 061930Z VRB02KT 2500 BR SCT020 FEW030CB OVC090 27/26 Q0999 NOSIG
VILK 061900Z 00000KT 2500 BR SCT020 FEW030CB OVC090 27/27 Q0999 NOSIG
VILK 061830Z VRB02KT 2500 BR SCT020 FEW030CB OVC090 27/26 Q0999 NOSIG
VILK 061800Z VRB02KT 2500 BR SCT020 FEW030CB OVC090 27/26 Q0999 NOSIG
VILK 061730Z 17003KT 2500 -RA SCT020 FEW030CB OVC090 26/25 Q0999 NOSIG
VILK 061700Z 16013KT 2500 -TSRA SCT020 FEW030CB OVC090 27/24 Q1000 NOSIG
VILK 061630Z 11010KT 3000 -TSRA SCT020 FEW030CB OVC090 30/27 Q1000 NOSIG
VILK 061600Z 00000KT 3000 BR SCT020 FEW030CB BKN100 31/28 Q0999 NOSIG
VILK 061530Z 00000KT 3000 BR SCT020 FEW030CB BKN100 30/28 Q0999 NOSIG
VILK 061500Z 00000KT 3000 BR SCT020 SCT025 FEW030CB BKN100 30/28 Q0998 NOSIG
VILK 061430Z 00000KT 3000 TS SCT020 SCT025 FEW030CB BKN100 30/28 Q0998 TEMPO 3000 -TSRA
VILK 061400Z 00000KT 3000 HZ SCT020 SCT025 FEW030CB BKN100 30/28 Q0997 TEMPO 3000 -TSRA
VILK 061330Z 29002KT 3000 HZ SCT020 SCT025 FEW030CB BKN100 31/29 Q0997 TEMPO 3000 TSRA
VILK 061300Z 30003KT 3000 HZ SCT020 SCT025 FEW030CB BKN100 31/29 Q0997 TEMPO 3000 TSRA
VILK 061230Z 00000KT 3000 HZ SCT020 SCT025 FEW030CB BKN100 32/30 Q0996 TEMPO 1500 TSRA
VILK 061200Z 27003KT 3000 HZ SCT020 SCT025 FEW030CB BKN100 32/30 Q0996 NOSIG
VILK 061130Z 27003KT 3000 -TSRA SCT020 SCT025 FEW030CB BKN100 34/30 Q0996 NOSIG
VILK 061100Z 00000KT 4000 HZ SCT020 SCT025 FEW030CB BKN100 34/30 Q0996 BECMG VIS 3000 -TSRA
VILK 061030Z 00000KT 5000 HZ SCT020 SCT025 FEW030CB BKN100 34/30 Q0996 NOSIG
VILK 061000Z 13003KT 5000 HZ SCT020 SCT025 FEW030CB BKN100 34/30 Q0996 NOSIG
VILK 060930Z VRB02KT 5000 HZ SCT020 SCT025 FEW030CB BKN100 34/31 Q0997 NOSIG
VILK 060900Z VRB02KT 5000 HZ SCT020 SCT025 BKN100 34/30 Q0997 NOSIG
VILK 060830Z 17004KT 5000 HZ SCT020 SCT025 BKN100 34/30 Q0998 NOSIG
VILK 060800Z 11005KT 5000 HZ SCT020 SCT025 BKN100 34/30 Q0998 NOSIG
VILK 060730Z 09006KT 4500 BR SCT020 SCT025 BKN100 33/30 Q0999 BECMG 5000 HZ
VILK 060700Z 09006KT 4000 HZ SCT020 SCT025 BKN100 33/30 Q0999 NOSIG
VILK 060630Z 07005KT 4000 HZ SCT020 SCT025 BKN100 33/30 Q0999 NOSIG
VILK 060600Z 09005KT 4000 BR SCT020 SCT025 BKN100 32/30 Q1000 NOSIG
VILK 060530Z 09004KT 4000 BR SCT020 BKN100 32/30 Q1000 NOSIG
VILK 060500Z 09004KT 4000 BR SCT020 BKN100 32/30 Q1000 NOSIG
VILK 060430Z 09004KT 4000 BR SCT020 BKN100 33/30 Q1001 NOSIG
VILK 060400Z 00000KT 4000 BR SCT020 BKN100 33/30 Q1001 NOSIG
VILK 060330Z VRB02KT 3000 BR SCT020 BKN100 32/30 Q1001 NOSIG
VILK 060300Z VRB02KT 3000 BR SCT020 BKN100 31/29 Q1002 NOSIG
VILK 060230Z 00000KT 3000 BR SCT020 BKN100 30/28 Q1001 NOSIG
VILK 060200Z 00000KT 3500 BR SCT020 BKN100 30/29 Q1001 NOSIG
VILK 060130Z 00000KT 3500 BR SCT020 BKN100 29/28 01000 NOSIG
VILK 060030Z 00000KT 3500 BR SCT020 BKN100 29/28 01000 NOSIG
VILK 060000Z 00000KT 3500 BR SCT020 BKN100 29/28 Q1000 NOSIG
VILK 052330Z 00000KT 3500 BR SCT020 BKN100 29/28 Q1000 NOSIG
VILK 052300Z 00000KT 3500 BR SCT020 BKN100 29/28 Q0999 NOSIG
VILK 052230Z 00000KT 3500 BR SCT020 BKN100 30/28 Q0999 NOSIG
VILK 052200Z 00000KT 3500 BR SCT020 BKN100 30/28 Q0999 NOSIG
VILK 052130Z 00000KT 3500 BR SCT020 FEW030CB BKN100 30/28 Q0999 NOSIG
VILK 052030Z 00000KT 3500 BR SCT020 BKN100 30/28 Q1000 NOSIG
VILK 052000Z 00000KT 3500 BR SCT020 BKN100 30/28 Q1000 NOSIG
VILK 051930Z 00000KT 3500 BR SCT020 SCT025 BKN100 30/28 Q1000 NOSIG
VILK 051830Z 00000KT 3500 BR SCT020 SCT025 BKN100 30/28 Q1000 NOSIG
VILK 051800Z 00000KT 3500 BR SCT020 SCT025 BKN100 30/28 Q1000 NOSIG
VILK 051730Z VRB02KT 3500 BR SCT020 SCT025 BKN100 30/28 Q1000 NOSIG
VILK 051700Z 29003KT 3500 BR SCT020 SCT025 BKN100 30/28 Q1000 NOSIG
VILK 051630Z 00000KT 3500 BR SCT020 SCT025 FEW030CB 31/29 Q1000 NOSIG
VILK 051600Z 00000KT 3500 BR SCT020 SCT025 FEW030CB 31/29 Q1000 NOSIG
VILK 051530Z VRB02KT 3500 BR SCT020 SCT025 FEW030CB 31/29 Q1000 NOSIG
VILK 051430Z 00000KT 3500 HZ SCT020 SCT025 FEW030CB 31/29 Q0999 NOSIG
VILK 051330Z 00000KT 3500 HZ SCT020 SCT025 FEW030CB 32/29 Q0998 NOSIG